Time;durP1;ratioP1;P1;durP2;ratioP2;P2;SDS_P1;SDS_P2;PMS_P1;PMS_P2;Temp;Humidity;BMP_temperature;BMP_pressure;BME280_temperature;BME280_humidity;BME280_pressure;Samples;Min_cycle;Max_cycle;Signal;HPM_P1;HPM_P2
2022/04/28 00:00:07;;;;;;;3.77;3.57;;;;;;;;;;5050229;28;20460;-73
2022/04/28 00:02:33;;;;;;;2.30;2.30;;;;;;;;;;5044501;28;21091;-73
2022/04/28 00:04:59;;;;;;;2.53;2.43;;;;;;;;;;5051152;28;20430;-73
2022/04/28 00:07:26;;;;;;;2.33;2.13;;;;;;;;;;5046067;28;20471;-74
2022/04/28 00:09:52;;;;;;;2.80;2.67;;;;;;;;;;5049263;28;20466;-74
2022/04/28 00:12:18;;;;;;;2.10;2.10;;;;;;;;;;5049664;28;20492;-75
2022/04/28 00:14:44;;;;;;;2.67;2.57;;;;;;;;;;5049390;28;20470;-74
2022/04/28 00:17:10;;;;;;;2.60;2.50;;;;;;;;;;5048373;28;20438;-74
2022/04/28 00:19:36;;;;;;;2.37;2.37;;;;;;;;;;5047414;28;20427;-73
2022/04/28 00:22:02;;;;;;;2.00;2.00;;;;;;;;;;5051155;28;20500;-74
2022/04/28 00:24:28;;;;;;;1.40;1.40;;;;;;;;;;5049951;28;20426;-73
2022/04/28 00:26:54;;;;;;;1.47;1.47;;;;;;;;;;5049684;28;20813;-73
2022/04/28 00:29:21;;;;;;;1.80;1.80;;;;;;;;;;5049180;28;20430;-73
2022/04/28 00:31:47;;;;;;;1.70;1.70;;;;;;;;;;5046041;28;20457;-74
2022/04/28 00:34:13;;;;;;;1.97;1.93;;;;;;;;;;5048273;28;20433;-73
2022/04/28 00:36:39;;;;;;;2.07;2.07;;;;;;;;;;5048576;28;20826;-73
2022/04/28 00:39:05;;;;;;;1.60;1.60;;;;;;;;;;5048308;28;20957;-73
2022/04/28 00:41:31;;;;;;;1.37;1.37;;;;;;;;;;5047304;28;20478;-74
2022/04/28 00:43:57;;;;;;;1.77;1.77;;;;;;;;;;5047078;28;20987;-73
2022/04/28 00:46:23;;;;;;;1.73;1.73;;;;;;;;;;5047325;28;20434;-73
2022/04/28 00:51:34;;;;;;;1.50;1.50;;;;;;;;;;5049402;28;20481;-74
2022/04/28 00:54:01;;;;;;;1.63;1.63;;;;;;;;;;5049518;28;20457;-73
2022/04/28 00:56:28;;;;;;;1.33;1.33;;;;;;;;;;5045059;28;20513;-73
2022/04/28 00:58:54;;;;;;;3.03;1.60;;;;;;;;;;5049030;28;20437;-73
2022/04/28 01:01:21;;;;;;;1.77;1.77;;;;;;;;;;5046495;28;20555;-73
2022/04/28 01:03:47;;;;;;;1.73;1.73;;;;;;;;;;5044291;28;20631;-73
2022/04/28 01:06:13;;;;;;;1.60;1.60;;;;;;;;;;5049329;28;20461;-73
2022/04/28 01:08:40;;;;;;;1.23;1.23;;;;;;;;;;5046309;28;20437;-76
2022/04/28 01:11:06;;;;;;;1.80;1.80;;;;;;;;;;5040008;28;20585;-74
2022/04/28 01:13:32;;;;;;;1.57;1.57;;;;;;;;;;5046707;28;20496;-73
2022/04/28 01:15:58;;;;;;;1.40;1.40;;;;;;;;;;5049568;28;20425;-74
2022/04/28 01:18:24;;;;;;;1.73;1.70;;;;;;;;;;5045111;28;20439;-74
2022/04/28 01:20:50;;;;;;;3.03;1.37;;;;;;;;;;5046306;28;20456;-76
2022/04/28 01:23:18;;;;;;;1.90;1.80;;;;;;;;;;5047380;28;21092;-74
2022/04/28 01:25:44;;;;;;;1.90;1.90;;;;;;;;;;5048754;28;20446;-73
2022/04/28 01:28:10;;;;;;;1.60;1.60;;;;;;;;;;5046736;28;20496;-73
2022/04/28 01:30:37;;;;;;;1.30;1.30;;;;;;;;;;5046364;28;20521;-75
2022/04/28 01:33:03;;;;;;;1.93;1.93;;;;;;;;;;5045587;28;20864;-73
2022/04/28 01:35:29;;;;;;;1.97;1.87;;;;;;;;;;5049237;28;20435;-73
2022/04/28 01:37:55;;;;;;;1.70;1.60;;;;;;;;;;5045682;28;20487;-73
2022/04/28 01:40:21;;;;;;;1.73;1.73;;;;;;;;;;5047472;28;20422;-73
2022/04/28 01:42:48;;;;;;;1.60;1.60;;;;;;;;;;5049935;28;20486;-73
2022/04/28 01:45:14;;;;;;;1.80;1.80;;;;;;;;;;5048454;28;20480;-73
2022/04/28 01:47:40;;;;;;;2.63;2.23;;;;;;;;;;5048083;28;20484;-75
2022/04/28 01:50:08;;;;;;;2.40;1.93;;;;;;;;;;5047631;28;20474;-74
2022/04/28 01:55:19;;;;;;;2.50;2.30;;;;;;;;;;5049340;28;20458;-73
2022/04/28 01:57:46;;;;;;;1.93;1.93;;;;;;;;;;5045975;28;20446;-73
2022/04/28 02:00:12;;;;;;;2.07;2.07;;;;;;;;;;5046382;28;20437;-73
2022/04/28 02:02:38;;;;;;;1.63;1.63;;;;;;;;;;5048001;28;20893;-73
2022/04/28 02:05:05;;;;;;;3.50;2.50;;;;;;;;;;5046172;28;20528;-73
2022/04/28 02:07:31;;;;;;;2.17;2.10;;;;;;;;;;5048844;28;20484;-74
2022/04/28 02:09:57;;;;;;;1.73;1.70;;;;;;;;;;5043347;28;21447;-73
2022/04/28 02:12:24;;;;;;;2.33;2.33;;;;;;;;;;5047952;28;20449;-74
2022/04/28 02:14:50;;;;;;;2.00;1.90;;;;;;;;;;5049440;28;20430;-75
2022/04/28 02:17:20;;;;;;;1.93;1.83;;;;;;;;;;5049356;28;20516;-73
2022/04/28 02:19:46;;;;;;;1.83;1.83;;;;;;;;;;5044796;28;20857;-72
2022/04/28 02:22:12;;;;;;;2.23;2.23;;;;;;;;;;5048196;28;20486;-75
2022/04/28 02:24:38;;;;;;;2.13;2.13;;;;;;;;;;5045648;28;20935;-74
2022/04/28 02:27:04;;;;;;;1.60;1.60;;;;;;;;;;5042995;28;20442;-73
2022/04/28 02:29:30;;;;;;;2.03;1.73;;;;;;;;;;5048690;28;20930;-73
2022/04/28 02:31:56;;;;;;;2.43;2.33;;;;;;;;;;5047380;28;20438;-75
2022/04/28 02:34:23;;;;;;;2.40;2.40;;;;;;;;;;5048751;28;20426;-74
2022/04/28 02:36:49;;;;;;;1.80;1.80;;;;;;;;;;5051942;28;20537;-72
2022/04/28 02:39:15;;;;;;;1.97;1.97;;;;;;;;;;5052711;28;20446;-73
2022/04/28 02:41:44;;;;;;;2.60;2.20;;;;;;;;;;5049627;28;20467;-73
2022/04/28 02:44:13;;;;;;;2.37;2.37;;;;;;;;;;5052411;28;20572;-75
2022/04/28 02:46:42;;;;;;;2.47;2.37;;;;;;;;;;5051578;28;20937;-74
2022/04/28 02:49:08;;;;;;;2.70;2.60;;;;;;;;;;5052527;28;20937;-73
2022/04/28 02:51:34;;;;;;;4.00;3.80;;;;;;;;;;5051129;28;20443;-73
2022/04/28 02:54:00;;;;;;;2.30;2.20;;;;;;;;;;5047327;28;20433;-74
2022/04/28 02:56:26;;;;;;;2.37;2.37;;;;;;;;;;5050630;28;20430;-73
2022/04/28 02:58:53;;;;;;;1.67;1.67;;;;;;;;;;5050036;28;20537;-73
2022/04/28 03:01:19;;;;;;;2.50;2.50;;;;;;;;;;5052104;28;20422;-73
2022/04/28 03:03:45;;;;;;;3.13;1.87;;;;;;;;;;5051063;28;20446;-72
2022/04/28 03:11:41;;;;;;;2.50;2.37;;;;;;;;;;5051071;28;20435;-73
2022/04/28 03:14:07;;;;;;;2.13;2.13;;;;;;;;;;5050063;28;20435;-73
2022/04/28 03:16:33;;;;;;;2.47;2.47;;;;;;;;;;5048955;28;20453;-73
2022/04/28 03:18:59;;;;;;;3.03;2.70;;;;;;;;;;5046806;28;20450;-73
2022/04/28 03:21:25;;;;;;;3.10;3.00;;;;;;;;;;5051882;28;20553;-73
2022/04/28 03:23:51;;;;;;;2.23;2.13;;;;;;;;;;5048257;28;20553;-73
2022/04/28 03:26:17;;;;;;;2.23;2.23;;;;;;;;;;5050779;28;20917;-73
2022/04/28 03:28:43;;;;;;;2.30;2.20;;;;;;;;;;5046677;28;20962;-73
2022/04/28 03:31:09;;;;;;;11.77;3.20;;;;;;;;;;5049269;28;20431;-73
2022/04/28 03:33:35;;;;;;;3.03;2.83;;;;;;;;;;5064448;28;20453;-73
2022/04/28 03:36:01;;;;;;;2.47;2.47;;;;;;;;;;5047689;28;20517;-73
2022/04/28 03:38:27;;;;;;;2.70;2.60;;;;;;;;;;5050258;28;20524;-73
2022/04/28 03:40:53;;;;;;;2.30;2.30;;;;;;;;;;5050990;28;20450;-73
2022/04/28 03:43:19;;;;;;;2.30;2.20;;;;;;;;;;5050278;28;21001;-73
2022/04/28 03:45:45;;;;;;;2.97;2.77;;;;;;;;;;5049586;28;20469;-73
2022/04/28 03:48:12;;;;;;;2.73;2.43;;;;;;;;;;5048176;28;20471;-73
2022/04/28 03:50:38;;;;;;;2.57;2.57;;;;;;;;;;5048233;28;20937;-73
2022/04/28 03:53:05;;;;;;;2.70;2.70;;;;;;;;;;5049208;28;20442;-73
2022/04/28 03:55:31;;;;;;;2.70;2.60;;;;;;;;;;5049621;28;20495;-73
2022/04/28 03:57:58;;;;;;;3.23;3.03;;;;;;;;;;5043056;28;20470;-73
2022/04/28 04:00:25;;;;;;;3.43;2.70;;;;;;;;;;5050281;28;20853;-73
2022/04/28 04:02:51;;;;;;;2.00;2.00;;;;;;;;;;5043916;28;20523;-73
2022/04/28 04:05:17;;;;;;;2.67;2.50;;;;;;;;;;5045564;28;20430;-73
2022/04/28 04:07:43;;;;;;;2.80;2.70;;;;;;;;;;5049862;28;20464;-72
2022/04/28 04:10:11;;;;;;;2.87;2.87;;;;;;;;;;5048253;28;20434;-72
2022/04/28 04:12:37;;;;;;;2.77;2.67;;;;;;;;;;5049343;28;20472;-73
2022/04/28 04:15:04;;;;;;;2.60;2.50;;;;;;;;;;5045242;28;20448;-73
2022/04/28 04:17:30;;;;;;;2.10;2.10;;;;;;;;;;5045653;28;20426;-73
2022/04/28 04:19:56;;;;;;;2.90;2.57;;;;;;;;;;5048025;28;20426;-73
2022/04/28 04:22:22;;;;;;;2.97;2.60;;;;;;;;;;5049005;28;20483;-73
2022/04/28 04:24:47;;;;;;;2.60;2.57;;;;;;;;;;5048575;28;21001;-73
2022/04/28 04:27:15;;;;;;;4.23;2.83;;;;;;;;;;5048395;28;20840;-73
2022/04/28 04:29:41;;;;;;;3.23;2.57;;;;;;;;;;5050337;28;20989;-73
2022/04/28 04:32:24;;;;;;;2.10;2.10;;;;;;;;;;5049548;28;20438;-73
2022/04/28 04:34:50;;;;;;;2.83;2.73;;;;;;;;;;5048099;28;20446;-81
2022/04/28 04:37:16;;;;;;;2.80;2.70;;;;;;;;;;5046644;28;20446;-82
2022/04/28 04:39:42;;;;;;;2.77;2.57;;;;;;;;;;5049988;28;20438;-80
2022/04/28 04:42:08;;;;;;;2.37;2.27;;;;;;;;;;5049682;28;20564;-77
2022/04/28 04:44:35;;;;;;;2.83;2.73;;;;;;;;;;5050480;28;20522;-73
2022/04/28 04:47:01;;;;;;;2.80;2.70;;;;;;;;;;5049462;28;20453;-75
2022/04/28 04:49:27;;;;;;;6.67;2.77;;;;;;;;;;5041974;28;20522;-79
2022/04/28 04:51:53;;;;;;;2.73;2.63;;;;;;;;;;5049163;28;21006;-81
2022/04/28 04:54:20;;;;;;;3.00;2.90;;;;;;;;;;5048667;28;20453;-82
2022/04/28 04:56:46;;;;;;;4.40;2.70;;;;;;;;;;5049530;28;20427;-80
2022/04/28 04:59:12;;;;;;;3.30;3.20;;;;;;;;;;5044103;28;20433;-82
2022/04/28 05:01:38;;;;;;;2.67;2.57;;;;;;;;;;5050154;28;20458;-82
2022/04/28 05:04:04;;;;;;;2.70;2.70;;;;;;;;;;5046205;28;20554;-81
2022/04/28 05:06:30;;;;;;;2.50;2.43;;;;;;;;;;5046071;28;20557;-82
2022/04/28 05:08:57;;;;;;;2.60;2.50;;;;;;;;;;5047431;28;20446;-82
2022/04/28 05:11:23;;;;;;;3.10;3.10;;;;;;;;;;5045091;28;20423;-82
2022/04/28 05:13:49;;;;;;;3.87;3.53;;;;;;;;;;5048355;28;20788;-82
2022/04/28 05:16:15;;;;;;;3.57;3.40;;;;;;;;;;5048842;28;21053;-79
2022/04/28 05:18:41;;;;;;;3.07;2.97;;;;;;;;;;5048989;28;20438;-81
2022/04/28 05:21:07;;;;;;;5.90;5.50;;;;;;;;;;5049211;28;20441;-81
2022/04/28 05:23:33;;;;;;;4.30;3.90;;;;;;;;;;5049348;28;20485;-81
2022/04/28 05:25:59;;;;;;;3.47;3.37;;;;;;;;;;5041404;28;20433;-79
2022/04/28 05:28:28;;;;;;;4.07;3.83;;;;;;;;;;5046587;28;20444;-80
2022/04/28 05:30:55;;;;;;;2.97;2.97;;;;;;;;;;5048652;28;20465;-80
2022/04/28 05:33:22;;;;;;;3.20;3.00;;;;;;;;;;5045728;28;20478;-78
2022/04/28 05:35:48;;;;;;;2.80;2.70;;;;;;;;;;5048753;28;20515;-77
2022/04/28 05:38:14;;;;;;;4.27;3.87;;;;;;;;;;5045616;28;20975;-75
2022/04/28 05:40:40;;;;;;;4.30;4.10;;;;;;;;;;5044414;28;20466;-80
2022/04/28 05:45:52;;;;;;;4.33;4.13;;;;;;;;;;5046515;28;20487;-77
2022/04/28 05:48:18;;;;;;;3.80;3.70;;;;;;;;;;5037555;28;20486;-79
2022/04/28 05:50:45;;;;;;;3.63;3.53;;;;;;;;;;5041395;28;20485;-80
2022/04/28 05:53:11;;;;;;;4.03;3.73;;;;;;;;;;5042420;28;20450;-79
2022/04/28 05:55:37;;;;;;;5.27;4.73;;;;;;;;;;5044951;28;20477;-78
2022/04/28 05:58:04;;;;;;;4.30;4.10;;;;;;;;;;5049404;28;20430;-79
2022/04/28 06:00:30;;;;;;;4.13;3.93;;;;;;;;;;5045270;28;20433;-77
2022/04/28 06:02:56;;;;;;;3.97;3.70;;;;;;;;;;5041586;28;20488;-76
2022/04/28 06:05:23;;;;;;;3.97;3.77;;;;;;;;;;5038185;28;20435;-79
2022/04/28 06:07:49;;;;;;;3.80;3.57;;;;;;;;;;5040530;28;20462;-77
2022/04/28 06:10:16;;;;;;;2.87;2.77;;;;;;;;;;5047408;28;20470;-79
2022/04/28 06:12:42;;;;;;;3.70;3.60;;;;;;;;;;5047312;28;20772;-75
2022/04/28 06:15:09;;;;;;;3.80;3.70;;;;;;;;;;5043207;28;20438;-77
2022/04/28 06:17:35;;;;;;;3.43;3.30;;;;;;;;;;5048727;28;20452;-74
2022/04/28 06:20:01;;;;;;;4.13;3.93;;;;;;;;;;5042607;28;20455;-74
2022/04/28 06:22:27;;;;;;;3.60;3.50;;;;;;;;;;5046721;28;20520;-76
2022/04/28 06:24:54;;;;;;;3.63;3.53;;;;;;;;;;5041113;28;21789;-76
2022/04/28 06:27:20;;;;;;;3.23;3.13;;;;;;;;;;5044451;28;20481;-74
2022/04/28 06:29:48;;;;;;;6.87;3.50;;;;;;;;;;5045074;28;20516;-77
2022/04/28 06:32:16;;;;;;;9.83;3.83;;;;;;;;;;5043179;28;20461;-75
2022/04/28 06:34:42;;;;;;;3.80;3.70;;;;;;;;;;5041545;28;20477;-78
2022/04/28 06:37:08;;;;;;;4.20;3.80;;;;;;;;;;5045966;28;20476;-77
2022/04/28 06:39:34;;;;;;;4.90;4.50;;;;;;;;;;5040152;28;20488;-75
2022/04/28 06:42:00;;;;;;;4.63;4.33;;;;;;;;;;5043834;28;20474;-78
2022/04/28 06:44:26;;;;;;;3.30;3.20;;;;;;;;;;5043826;28;20474;-79
2022/04/28 06:46:52;;;;;;;4.27;3.87;;;;;;;;;;5046924;28;20445;-79
2022/04/28 06:49:18;;;;;;;3.90;3.70;;;;;;;;;;5048858;28;20434;-77
2022/04/28 06:51:44;;;;;;;4.50;4.20;;;;;;;;;;5047071;28;20984;-79
2022/04/28 06:54:10;;;;;;;4.00;3.67;;;;;;;;;;5045076;28;20926;-79
2022/04/28 06:56:36;;;;;;;4.13;3.87;;;;;;;;;;5045966;28;20439;-77
2022/04/28 06:59:02;;;;;;;3.93;3.83;;;;;;;;;;5047124;28;20982;-78
2022/04/28 07:01:28;;;;;;;10.03;3.80;;;;;;;;;;5047326;28;20418;-76
2022/04/28 07:03:54;;;;;;;6.07;4.47;;;;;;;;;;5048972;28;20440;-79
2022/04/28 07:06:19;;;;;;;4.60;4.33;;;;;;;;;;5047209;28;20434;-79
2022/04/28 07:08:45;;;;;;;4.50;4.10;;;;;;;;;;5046896;28;20881;-79
2022/04/28 07:11:11;;;;;;;5.37;4.63;;;;;;;;;;5044774;28;20434;-77
2022/04/28 07:13:37;;;;;;;6.53;5.93;;;;;;;;;;5043688;28;20443;-75
2022/04/28 07:16:04;;;;;;;4.67;4.47;;;;;;;;;;5048788;28;20421;-74
2022/04/28 07:18:30;;;;;;;5.33;3.70;;;;;;;;;;5048869;28;21040;-74
2022/04/28 07:20:58;;;;;;;4.20;4.00;;;;;;;;;;5047070;28;20439;-75
2022/04/28 07:23:24;;;;;;;4.17;3.97;;;;;;;;;;5046779;28;20494;-75
2022/04/28 07:25:50;;;;;;;4.07;3.97;;;;;;;;;;5048475;28;20493;-78
2022/04/28 07:28:16;;;;;;;5.87;5.10;;;;;;;;;;5042271;28;20521;-79
2022/04/28 07:30:42;;;;;;;4.27;4.07;;;;;;;;;;5047722;28;20484;-78
2022/04/28 07:33:08;;;;;;;5.20;4.90;;;;;;;;;;5044118;28;20450;-78
2022/04/28 07:35:35;;;;;;;11.77;5.40;;;;;;;;;;5044769;28;20434;-75
2022/04/28 07:38:04;;;;;;;4.73;4.43;;;;;;;;;;5047960;28;20470;-74
2022/04/28 07:40:30;;;;;;;5.60;5.10;;;;;;;;;;5049511;28;20476;-75
2022/04/28 07:42:56;;;;;;;7.60;4.97;;;;;;;;;;5047818;28;20521;-77
2022/04/28 07:45:23;;;;;;;5.13;4.53;;;;;;;;;;5049138;28;20462;-77
2022/04/28 07:47:49;;;;;;;4.30;4.10;;;;;;;;;;5049535;28;20815;-74
2022/04/28 07:50:15;;;;;;;5.20;5.00;;;;;;;;;;5047578;28;20473;-75
2022/04/28 07:52:41;;;;;;;5.13;4.83;;;;;;;;;;5048266;28;20438;-77
2022/04/28 07:55:08;;;;;;;5.50;5.10;;;;;;;;;;5048939;28;20835;-77
2022/04/28 07:57:34;;;;;;;5.17;4.83;;;;;;;;;;5049126;28;20442;-73
2022/04/28 08:00:00;;;;;;;4.33;4.13;;;;;;;;;;5042326;28;20539;-77
2022/04/28 08:02:27;;;;;;;6.40;5.90;;;;;;;;;;5047878;28;20825;-79
2022/04/28 08:04:53;;;;;;;4.27;4.00;;;;;;;;;;5049721;28;20969;-77
2022/04/28 08:07:19;;;;;;;4.40;4.10;;;;;;;;;;5051231;28;20438;-73
2022/04/28 08:09:45;;;;;;;8.70;5.33;;;;;;;;;;5045402;28;20434;-74
2022/04/28 08:12:11;;;;;;;6.83;6.20;;;;;;;;;;5046829;28;20438;-76
2022/04/28 08:14:39;;;;;;;4.60;4.40;;;;;;;;;;5043232;28;20976;-76
2022/04/28 08:17:05;;;;;;;4.50;4.20;;;;;;;;;;5045648;28;20443;-80
2022/04/28 08:19:32;;;;;;;4.60;4.20;;;;;;;;;;5041645;28;20461;-75
2022/04/28 08:21:59;;;;;;;5.00;4.73;;;;;;;;;;5048589;28;20516;-79
2022/04/28 08:24:25;;;;;;;4.23;4.00;;;;;;;;;;5045795;28;20449;-78
2022/04/28 08:26:52;;;;;;;3.73;3.60;;;;;;;;;;5050406;28;20446;-77
2022/04/28 08:29:19;;;;;;;8.67;5.50;;;;;;;;;;5044832;28;20430;-77
2022/04/28 08:31:45;;;;;;;3.93;3.63;;;;;;;;;;5045684;28;20437;-78
2022/04/28 08:34:15;;;;;;;3.67;3.57;;;;;;;;;;5050432;28;20431;-81
2022/04/28 08:36:41;;;;;;;4.17;3.93;;;;;;;;;;5048597;28;20434;-79
2022/04/28 08:39:07;;;;;;;4.17;3.93;;;;;;;;;;5047032;28;20434;-79
2022/04/28 08:41:35;;;;;;;3.83;3.63;;;;;;;;;;5045463;28;20911;-79
2022/04/28 08:44:02;;;;;;;3.93;3.83;;;;;;;;;;5049232;28;20492;-79
2022/04/28 08:49:14;;;;;;;4.30;4.10;;;;;;;;;;5042576;28;20453;-80
2022/04/28 08:51:40;;;;;;;4.13;3.90;;;;;;;;;;5045141;28;20438;-77
2022/04/28 08:54:12;;;;;;;4.30;4.10;;;;;;;;;;5039453;28;20435;-78
2022/04/28 08:56:42;;;;;;;3.33;3.23;;;;;;;;;;5039545;28;20470;-77
2022/04/28 08:59:08;;;;;;;4.10;3.83;;;;;;;;;;5046088;28;20861;-74
2022/04/28 09:01:34;;;;;;;3.53;3.43;;;;;;;;;;5046958;28;20427;-76
2022/04/28 09:04:02;;;;;;;4.40;4.20;;;;;;;;;;5048094;28;20565;-81
2022/04/28 09:06:34;;;;;;;4.63;4.23;;;;;;;;;;5045497;28;20426;-81
2022/04/28 09:09:01;;;;;;;3.40;3.30;;;;;;;;;;5049072;28;20442;-79
2022/04/28 09:11:28;;;;;;;3.70;3.47;;;;;;;;;;5047538;28;20430;-80
2022/04/28 09:14:09;;;;;;;2.93;2.93;;;;;;;;;;5048379;28;20949;-77
2022/04/28 09:16:59;;;;;;;5.17;3.40;;;;;;;;;;5044242;28;21182;-80
2022/04/28 09:19:25;;;;;;;2.70;2.70;;;;;;;;;;5047505;28;20442;-81
2022/04/28 09:21:53;;;;;;;2.60;2.50;;;;;;;;;;5046361;28;20829;-80
2022/04/28 09:24:19;;;;;;;2.90;2.90;;;;;;;;;;5048906;28;20503;-79
2022/04/28 09:26:47;;;;;;;2.93;2.83;;;;;;;;;;5044765;28;20943;-78
2022/04/28 09:29:14;;;;;;;2.63;2.60;;;;;;;;;;5047843;28;20446;-76
2022/04/28 09:31:41;;;;;;;2.47;2.40;;;;;;;;;;5046296;28;20446;-76
2022/04/28 09:34:08;;;;;;;7.60;2.60;;;;;;;;;;5049122;28;20442;-78
2022/04/28 09:36:34;;;;;;;2.10;2.00;;;;;;;;;;5046859;28;20430;-77
2022/04/28 09:39:00;;;;;;;2.70;2.50;;;;;;;;;;5045223;28;20430;-76
2022/04/28 09:44:12;;;;;;;1.73;1.73;;;;;;;;;;5044320;28;20485;-76
2022/04/28 09:46:41;;;;;;;2.30;2.30;;;;;;;;;;5045591;28;20414;-76
2022/04/28 09:49:09;;;;;;;2.60;2.50;;;;;;;;;;5056306;28;20438;-76
2022/04/28 09:51:38;;;;;;;2.57;2.57;;;;;;;;;;5035491;28;20451;-73
2022/04/28 09:54:06;;;;;;;2.20;2.00;;;;;;;;;;5041142;28;20450;-75
2022/04/28 09:56:34;;;;;;;1.83;1.83;;;;;;;;;;5046229;28;20431;-79
2022/04/28 09:59:01;;;;;;;3.50;2.03;;;;;;;;;;5044478;28;20445;-76
2022/04/28 10:01:29;;;;;;;3.60;2.30;;;;;;;;;;5040367;28;20979;-78
2022/04/28 10:03:55;;;;;;;1.70;1.70;;;;;;;;;;5045769;28;20443;-79
2022/04/28 10:06:24;;;;;;;1.60;1.60;;;;;;;;;;5046924;28;20426;-78
2022/04/28 10:08:51;;;;;;;2.03;1.33;;;;;;;;;;5047935;28;20454;-79
2022/04/28 10:11:20;;;;;;;8.47;2.00;;;;;;;;;;5040433;28;20448;-76
2022/04/28 10:13:50;;;;;;;1.90;1.90;;;;;;;;;;5043520;28;20443;-76
2022/04/28 10:16:17;;;;;;;4.13;1.97;;;;;;;;;;5046772;28;20446;-78
2022/04/28 10:18:51;;;;;;;1.83;1.70;;;;;;;;;;5047598;28;21304;-78
2022/04/28 10:21:20;;;;;;;1.53;1.43;;;;;;;;;;5046153;28;21029;-78
2022/04/28 10:32:36;;;;;;;1.50;1.50;;;;;;;;;;5047728;28;20414;-75
2022/04/28 10:35:06;;;;;;;1.40;1.40;;;;;;;;;;5046777;28;20464;-76
2022/04/28 10:37:33;;;;;;;1.67;1.63;;;;;;;;;;5043553;28;20445;-76
2022/04/28 10:39:59;;;;;;;2.07;2.03;;;;;;;;;;5046382;28;20454;-73
2022/04/28 10:42:25;;;;;;;1.80;1.70;;;;;;;;;;5039696;28;20483;-74
2022/04/28 10:44:56;;;;;;;1.90;1.80;;;;;;;;;;5046833;28;20492;-73
2022/04/28 10:47:43;;;;;;;1.47;1.47;;;;;;;;;;5046650;28;20180;-77
2022/04/28 10:50:21;;;;;;;1.30;1.30;;;;;;;;;;5048200;28;20561;-73
2022/04/28 10:53:07;;;;;;;2.40;2.20;;;;;;;;;;5045884;28;20819;-78
2022/04/28 10:55:33;;;;;;;2.10;2.10;;;;;;;;;;5046384;28;20441;-78
2022/04/28 10:58:17;;;;;;;1.70;1.70;;;;;;;;;;5048091;28;20443;-79
2022/04/28 11:00:51;;;;;;;2.13;1.97;;;;;;;;;;5047207;28;20925;-79
2022/04/28 11:03:17;;;;;;;1.43;1.43;;;;;;;;;;5044965;28;20493;-78
2022/04/28 11:05:43;;;;;;;1.00;1.00;;;;;;;;;;5047185;28;20431;-79
2022/04/28 11:08:10;;;;;;;1.37;1.30;;;;;;;;;;5046673;28;20878;-78
2022/04/28 11:10:56;;;;;;;2.50;1.60;;;;;;;;;;5048120;28;20458;-78
2022/04/28 11:13:24;;;;;;;1.40;1.30;;;;;;;;;;5039838;28;20636;-79
2022/04/28 11:15:50;;;;;;;1.20;1.20;;;;;;;;;;5045319;28;21125;-81
2022/04/28 11:18:17;;;;;;;11.00;1.30;;;;;;;;;;5049053;28;20446;-79
2022/04/28 11:20:43;;;;;;;1.80;1.80;;;;;;;;;;5047912;28;20438;-80
2022/04/28 11:23:09;;;;;;;1.50;1.40;;;;;;;;;;5051716;28;20492;-76
2022/04/28 11:25:35;;;;;;;1.40;1.40;;;;;;;;;;5050658;28;20520;-75
2022/04/28 11:28:01;;;;;;;1.93;1.87;;;;;;;;;;5049386;28;20449;-76
2022/04/28 11:30:28;;;;;;;1.47;1.37;;;;;;;;;;5048756;28;20415;-79
2022/04/28 11:32:57;;;;;;;1.77;1.57;;;;;;;;;;5047273;28;20438;-75
2022/04/28 11:35:28;;;;;;;2.40;1.33;;;;;;;;;;5042404;28;20472;-74
2022/04/28 11:37:54;;;;;;;1.80;1.80;;;;;;;;;;5049068;28;20449;-77
2022/04/28 11:40:23;;;;;;;1.63;1.63;;;;;;;;;;5045828;28;20521;-79
2022/04/28 11:42:55;;;;;;;1.47;1.20;;;;;;;;;;5044761;28;20855;-76
2022/04/28 11:45:22;;;;;;;1.20;1.20;;;;;;;;;;5047360;28;20533;-80
2022/04/28 11:47:49;;;;;;;1.60;1.60;;;;;;;;;;5038625;28;20810;-80
2022/04/28 11:50:19;;;;;;;1.43;1.43;;;;;;;;;;5045571;28;20533;-76
2022/04/28 11:52:45;;;;;;;1.40;1.40;;;;;;;;;;5049645;28;20521;-76
2022/04/28 11:55:12;;;;;;;1.43;1.33;;;;;;;;;;5046253;28;20499;-79
2022/04/28 11:57:41;;;;;;;1.00;1.00;;;;;;;;;;5044689;28;20440;-77
2022/04/28 12:00:07;;;;;;;1.30;1.30;;;;;;;;;;5048093;28;20440;-79
2022/04/28 12:02:34;;;;;;;1.10;1.10;;;;;;;;;;5045734;28;20525;-79
2022/04/28 12:05:02;;;;;;;1.30;1.30;;;;;;;;;;5043710;28;20439;-76
2022/04/28 12:07:32;;;;;;;1.57;1.33;;;;;;;;;;5042375;28;20443;-76
2022/04/28 12:15:29;;;;;;;3.40;2.23;;;;;;;;;;5050541;28;20410;-77
2022/04/28 12:20:53;;;;;;;1.20;1.20;;;;;;;;;;5043828;28;20450;-79
2022/04/28 12:23:30;;;;;;;1.43;1.33;;;;;;;;;;5043495;28;20497;-76
2022/04/28 12:26:00;;;;;;;1.00;1.00;;;;;;;;;;5050091;28;20969;-75
2022/04/28 12:28:33;;;;;;;1.20;1.20;;;;;;;;;;5042249;28;20503;-77
2022/04/28 12:30:59;;;;;;;1.07;1.07;;;;;;;;;;5043801;28;20565;-79
2022/04/28 12:33:28;;;;;;;1.10;1.10;;;;;;;;;;5049136;28;20430;-78
2022/04/28 12:35:59;;;;;;;1.20;1.20;;;;;;;;;;5047288;28;20438;-78
2022/04/28 12:38:28;;;;;;;1.33;1.33;;;;;;;;;;5047999;28;20458;-79
2022/04/28 12:40:55;;;;;;;1.20;1.20;;;;;;;;;;5047586;28;20521;-78
2022/04/28 12:43:41;;;;;;;1.23;1.00;;;;;;;;;;5045866;28;20478;-77
2022/04/28 12:46:07;;;;;;;0.90;0.90;;;;;;;;;;5046016;28;20448;-79
2022/04/28 12:48:35;;;;;;;1.00;1.00;;;;;;;;;;5050375;28;20434;-74
2022/04/28 12:51:12;;;;;;;1.93;1.03;;;;;;;;;;5048419;28;20470;-77
2022/04/28 12:53:38;;;;;;;1.00;1.00;;;;;;;;;;5046751;28;20426;-79
2022/04/28 12:56:13;;;;;;;1.00;1.00;;;;;;;;;;5044192;28;20533;-80
2022/04/28 12:58:43;;;;;;;1.57;1.47;;;;;;;;;;5044858;28;20502;-79
2022/04/28 13:01:11;;;;;;;1.00;1.00;;;;;;;;;;5047153;28;20441;-78
2022/04/28 13:03:37;;;;;;;1.47;1.13;;;;;;;;;;5047449;28;20870;-79
2022/04/28 13:06:04;;;;;;;1.20;1.10;;;;;;;;;;5049062;28;20439;-79
2022/04/28 13:08:30;;;;;;;1.17;1.17;;;;;;;;;;5047011;28;20504;-78
2022/04/28 13:10:56;;;;;;;1.50;1.50;;;;;;;;;;5049406;28;20426;-79
2022/04/28 13:13:22;;;;;;;1.00;1.00;;;;;;;;;;5046137;28;20453;-78
2022/04/28 13:15:48;;;;;;;1.13;1.13;;;;;;;;;;5046380;28;20517;-74
2022/04/28 13:18:14;;;;;;;0.80;0.80;;;;;;;;;;5045140;28;20553;-73
2022/04/28 13:20:40;;;;;;;1.30;1.30;;;;;;;;;;5042237;28;20434;-79
2022/04/28 13:23:06;;;;;;;2.73;1.63;;;;;;;;;;5049858;28;20478;-76
2022/04/28 13:25:32;;;;;;;1.10;1.10;;;;;;;;;;5045611;28;20851;-77
2022/04/28 13:27:58;;;;;;;2.10;1.20;;;;;;;;;;5041954;28;20580;-73
2022/04/28 13:30:24;;;;;;;1.30;1.30;;;;;;;;;;5043513;28;21584;-76
2022/04/28 13:32:51;;;;;;;1.57;1.47;;;;;;;;;;5047153;28;20446;-78
2022/04/28 13:35:17;;;;;;;5.63;2.40;;;;;;;;;;5044924;28;20426;-77
2022/04/28 13:37:43;;;;;;;2.70;1.13;;;;;;;;;;5043996;28;20453;-79
2022/04/28 13:40:09;;;;;;;1.63;1.30;;;;;;;;;;5048865;28;20513;-79
2022/04/28 13:42:35;;;;;;;1.43;1.33;;;;;;;;;;5047670;28;20818;-79
2022/04/28 13:45:01;;;;;;;1.07;1.07;;;;;;;;;;5045227;28;20948;-76
2022/04/28 13:47:28;;;;;;;0.90;0.90;;;;;;;;;;5047059;28;20430;-78
2022/04/28 13:49:55;;;;;;;1.13;1.13;;;;;;;;;;5048864;28;21493;-75
2022/04/28 13:52:22;;;;;;;1.60;1.50;;;;;;;;;;5048267;28;20439;-78
2022/04/28 13:54:47;;;;;;;1.40;1.30;;;;;;;;;;5049461;28;20485;-75
2022/04/28 13:57:13;;;;;;;0.97;0.97;;;;;;;;;;5047925;28;20434;-77
2022/04/28 13:59:40;;;;;;;1.27;1.23;;;;;;;;;;5045698;28;20445;-77
2022/04/28 14:02:06;;;;;;;2.83;1.33;;;;;;;;;;5044549;28;20471;-75
2022/04/28 14:04:32;;;;;;;1.10;1.00;;;;;;;;;;5046036;28;20511;-74
2022/04/28 14:06:58;;;;;;;1.40;1.30;;;;;;;;;;5045184;28;20922;-73
2022/04/28 14:09:24;;;;;;;2.27;2.07;;;;;;;;;;5049451;28;20418;-75
2022/04/28 14:11:51;;;;;;;1.03;1.03;;;;;;;;;;5045873;28;20808;-78
2022/04/28 14:14:16;;;;;;;1.80;1.80;;;;;;;;;;5046485;28;20442;-76
2022/04/28 14:16:43;;;;;;;2.00;1.23;;;;;;;;;;5042326;28;20436;-78
2022/04/28 14:19:09;;;;;;;1.60;1.50;;;;;;;;;;5049590;28;20419;-74
2022/04/28 14:21:36;;;;;;;1.40;1.30;;;;;;;;;;5048717;28;20415;-74
2022/04/28 14:24:02;;;;;;;2.97;1.27;;;;;;;;;;5049620;28;20430;-78
2022/04/28 14:26:28;;;;;;;1.13;1.13;;;;;;;;;;5047719;28;20770;-78
2022/04/28 14:28:54;;;;;;;1.93;1.20;;;;;;;;;;5042192;28;20454;-78
2022/04/28 14:31:20;;;;;;;1.20;1.20;;;;;;;;;;5048267;28;20414;-78
2022/04/28 14:33:46;;;;;;;3.50;1.70;;;;;;;;;;5049097;28;20418;-79
2022/04/28 14:36:12;;;;;;;0.93;0.93;;;;;;;;;;5047550;28;20495;-77
2022/04/28 14:38:38;;;;;;;1.30;1.13;;;;;;;;;;5044199;28;21008;-76
2022/04/28 14:41:05;;;;;;;1.10;1.00;;;;;;;;;;5042728;28;20795;-73
2022/04/28 14:43:31;;;;;;;1.40;1.40;;;;;;;;;;5043489;28;21056;-74
2022/04/28 14:45:56;;;;;;;1.50;1.50;;;;;;;;;;5046339;28;20521;-78
2022/04/28 14:48:22;;;;;;;1.07;1.07;;;;;;;;;;5046815;28;21102;-76
2022/04/28 14:53:34;;;;;;;1.00;1.00;;;;;;;;;;5043247;28;20438;-73
2022/04/28 14:56:00;;;;;;;1.93;1.10;;;;;;;;;;5048113;28;20442;-73
2022/04/28 14:58:26;;;;;;;1.33;1.33;;;;;;;;;;5043581;28;20504;-73
2022/04/28 15:00:52;;;;;;;1.53;1.23;;;;;;;;;;5044591;28;20430;-73
2022/04/28 15:03:19;;;;;;;1.10;1.10;;;;;;;;;;5041468;28;20485;-74
2022/04/28 15:05:45;;;;;;;1.67;1.57;;;;;;;;;;5040960;28;20430;-78
2022/04/28 15:08:11;;;;;;;1.20;1.20;;;;;;;;;;5047081;28;20419;-76
2022/04/28 15:10:39;;;;;;;0.93;0.90;;;;;;;;;;5045405;28;20483;-76
2022/04/28 15:13:05;;;;;;;1.23;1.23;;;;;;;;;;5044350;28;20534;-77
2022/04/28 15:15:35;;;;;;;1.10;1.10;;;;;;;;;;5039498;28;20549;-77
2022/04/28 15:18:01;;;;;;;1.40;1.30;;;;;;;;;;5037653;28;20442;-78
2022/04/28 15:20:27;;;;;;;1.53;1.43;;;;;;;;;;5037257;28;20450;-77